sensor_id;sensor_type;location;lat;lon;timestamp;temperature;humidity
69393;SHT31;56582;44.624;20.378;2024-01-11T00:01:46;-5.95;85.66
69393;SHT31;56582;44.624;20.378;2024-01-11T00:04:14;-5.99;85.84
69393;SHT31;56582;44.624;20.378;2024-01-11T00:06:44;-5.84;86.05
69393;SHT31;56582;44.624;20.378;2024-01-11T00:09:10;-6.05;86.35
69393;SHT31;56582;44.624;20.378;2024-01-11T00:11:35;-5.88;85.81
69393;SHT31;56582;44.624;20.378;2024-01-11T00:14:01;-6.15;87.54
69393;SHT31;56582;44.624;20.378;2024-01-11T00:16:29;-6.67;88.64
69393;SHT31;56582;44.624;20.378;2024-01-11T00:18:57;-6.46;89.17
69393;SHT31;56582;44.624;20.378;2024-01-11T00:21:23;-6.32;89.03
69393;SHT31;56582;44.624;20.378;2024-01-11T00:23:49;-5.81;88.14
69393;SHT31;56582;44.624;20.378;2024-01-11T00:26:15;-5.84;87.54
69393;SHT31;56582;44.624;20.378;2024-01-11T00:28:40;-6.10;88.35
69393;SHT31;56582;44.624;20.378;2024-01-11T00:31:06;-6.20;89.18
69393;SHT31;56582;44.624;20.378;2024-01-11T00:33:32;-6.23;89.09
69393;SHT31;56582;44.624;20.378;2024-01-11T00:35:58;-6.06;89.55
69393;SHT31;56582;44.624;20.378;2024-01-11T00:38:24;-6.02;88.78
69393;SHT31;56582;44.624;20.378;2024-01-11T00:40:49;-5.92;88.75
69393;SHT31;56582;44.624;20.378;2024-01-11T00:43:15;-6.25;89.12
69393;SHT31;56582;44.624;20.378;2024-01-11T00:45:40;-6.34;89.32
69393;SHT31;56582;44.624;20.378;2024-01-11T00:48:06;-6.07;89.44
69393;SHT31;56582;44.624;20.378;2024-01-11T00:50:31;-5.96;89.26
69393;SHT31;56582;44.624;20.378;2024-01-11T00:52:57;-5.99;88.90
69393;SHT31;56582;44.624;20.378;2024-01-11T00:55:23;-5.95;88.91
69393;SHT31;56582;44.624;20.378;2024-01-11T00:57:49;-5.64;88.97
69393;SHT31;56582;44.624;20.378;2024-01-11T01:00:16;-5.47;88.42
69393;SHT31;56582;44.624;20.378;2024-01-11T01:02:41;-5.58;89.01
69393;SHT31;56582;44.624;20.378;2024-01-11T01:05:07;-5.84;89.36
69393;SHT31;56582;44.624;20.378;2024-01-11T01:07:33;-5.92;88.56
69393;SHT31;56582;44.624;20.378;2024-01-11T01:09:58;-6.07;88.26
69393;SHT31;56582;44.624;20.378;2024-01-11T01:12:25;-6.30;88.77
69393;SHT31;56582;44.624;20.378;2024-01-11T01:14:51;-6.19;89.39
69393;SHT31;56582;44.624;20.378;2024-01-11T01:17:17;-6.38;89.65
69393;SHT31;56582;44.624;20.378;2024-01-11T01:19:43;-6.09;89.64
69393;SHT31;56582;44.624;20.378;2024-01-11T01:22:09;-5.98;89.54
69393;SHT31;56582;44.624;20.378;2024-01-11T01:24:35;-5.96;88.74
69393;SHT31;56582;44.624;20.378;2024-01-11T01:27:01;-6.05;89.68
69393;SHT31;56582;44.624;20.378;2024-01-11T01:29:26;-6.17;90.07
69393;SHT31;56582;44.624;20.378;2024-01-11T01:31:52;-5.99;90.15
69393;SHT31;56582;44.624;20.378;2024-01-11T01:34:18;-5.88;89.81
69393;SHT31;56582;44.624;20.378;2024-01-11T01:36:44;-5.92;89.33
69393;SHT31;56582;44.624;20.378;2024-01-11T01:39:10;-6.17;89.28
69393;SHT31;56582;44.624;20.378;2024-01-11T01:41:36;-6.20;88.56
69393;SHT31;56582;44.624;20.378;2024-01-11T01:44:01;-6.13;89.00
69393;SHT31;56582;44.624;20.378;2024-01-11T01:46:27;-6.19;89.01
69393;SHT31;56582;44.624;20.378;2024-01-11T01:48:54;-6.20;89.38
69393;SHT31;56582;44.624;20.378;2024-01-11T01:51:21;-6.17;89.65
69393;SHT31;56582;44.624;20.378;2024-01-11T01:53:48;-6.26;89.52
69393;SHT31;56582;44.624;20.378;2024-01-11T01:56:16;-6.51;89.89
69393;SHT31;56582;44.624;20.378;2024-01-11T01:58:42;-6.47;90.16
69393;SHT31;56582;44.624;20.378;2024-01-11T02:01:08;-6.71;90.37
69393;SHT31;56582;44.624;20.378;2024-01-11T02:03:35;-6.65;90.54
69393;SHT31;56582;44.624;20.378;2024-01-11T02:06:02;-6.65;90.59
69393;SHT31;56582;44.624;20.378;2024-01-11T02:08:30;-6.64;90.32
69393;SHT31;56582;44.624;20.378;2024-01-11T02:10:56;-6.64;90.23
69393;SHT31;56582;44.624;20.378;2024-01-11T02:13:26;-6.60;90.37
69393;SHT31;56582;44.624;20.378;2024-01-11T02:15:51;-6.50;89.76
69393;SHT31;56582;44.624;20.378;2024-01-11T02:18:17;-6.71;90.16
69393;SHT31;56582;44.624;20.378;2024-01-11T02:20:43;-6.67;89.57
69393;SHT31;56582;44.624;20.378;2024-01-11T02:23:12;-6.43;89.76
69393;SHT31;56582;44.624;20.378;2024-01-11T02:25:43;-6.40;89.58
69393;SHT31;56582;44.624;20.378;2024-01-11T02:28:08;-6.22;89.17
69393;SHT31;56582;44.624;20.378;2024-01-11T02:30:34;-6.22;88.99
69393;SHT31;56582;44.624;20.378;2024-01-11T02:33:00;-6.33;89.21
69393;SHT31;56582;44.624;20.378;2024-01-11T02:35:27;-6.27;88.74
69393;SHT31;56582;44.624;20.378;2024-01-11T02:37:54;-6.37;88.80
69393;SHT31;56582;44.624;20.378;2024-01-11T02:40:20;-6.36;88.43
69393;SHT31;56582;44.624;20.378;2024-01-11T02:42:45;-6.41;88.87
69393;SHT31;56582;44.624;20.378;2024-01-11T02:45:12;-6.46;88.73
69393;SHT31;56582;44.624;20.378;2024-01-11T02:47:40;-6.51;89.24
69393;SHT31;56582;44.624;20.378;2024-01-11T02:50:06;-6.40;89.24
69393;SHT31;56582;44.624;20.378;2024-01-11T02:52:33;-6.33;88.05
69393;SHT31;56582;44.624;20.378;2024-01-11T02:54:58;-6.51;88.00
69393;SHT31;56582;44.624;20.378;2024-01-11T02:57:24;-6.40;87.77
69393;SHT31;56582;44.624;20.378;2024-01-11T02:59:51;-6.41;88.54
69393;SHT31;56582;44.624;20.378;2024-01-11T03:02:17;-6.70;89.29
69393;SHT31;56582;44.624;20.378;2024-01-11T03:04:42;-6.75;89.41
69393;SHT31;56582;44.624;20.378;2024-01-11T03:07:08;-6.83;90.48
69393;SHT31;56582;44.624;20.378;2024-01-11T03:09:33;-6.68;89.88
69393;SHT31;56582;44.624;20.378;2024-01-11T03:11:59;-6.70;89.75
69393;SHT31;56582;44.624;20.378;2024-01-11T03:14:25;-6.65;89.24
69393;SHT31;56582;44.624;20.378;2024-01-11T03:16:50;-6.58;88.60
69393;SHT31;56582;44.624;20.378;2024-01-11T03:19:16;-6.78;88.89
69393;SHT31;56582;44.624;20.378;2024-01-11T03:21:45;-6.51;90.36
69393;SHT31;56582;44.624;20.378;2024-01-11T03:24:11;-6.06;95.02
69393;SHT31;56582;44.624;20.378;2024-01-11T03:26:37;-6.26;94.66
69393;SHT31;56582;44.624;20.378;2024-01-11T03:29:02;-6.25;92.74
69393;SHT31;56582;44.624;20.378;2024-01-11T03:31:28;-6.17;90.92
69393;SHT31;56582;44.624;20.378;2024-01-11T03:33:53;-6.38;89.83
69393;SHT31;56582;44.624;20.378;2024-01-11T03:36:23;-6.57;89.11
69393;SHT31;56582;44.624;20.378;2024-01-11T03:38:50;-6.58;89.17
69393;SHT31;56582;44.624;20.378;2024-01-11T03:41:15;-6.48;89.17
69393;SHT31;56582;44.624;20.378;2024-01-11T03:43:41;-6.38;88.35
69393;SHT31;56582;44.624;20.378;2024-01-11T03:46:06;-6.54;88.21
69393;SHT31;56582;44.624;20.378;2024-01-11T03:48:32;-6.33;88.37
69393;SHT31;56582;44.624;20.378;2024-01-11T03:50:57;-6.38;89.12
69393;SHT31;56582;44.624;20.378;2024-01-11T03:53:23;-6.05;89.05
69393;SHT31;56582;44.624;20.378;2024-01-11T03:55:48;-6.03;88.18
69393;SHT31;56582;44.624;20.378;2024-01-11T03:58:14;-6.05;87.91
69393;SHT31;56582;44.624;20.378;2024-01-11T04:00:39;-6.12;87.84
69393;SHT31;56582;44.624;20.378;2024-01-11T04:03:06;-6.30;88.21
69393;SHT31;56582;44.624;20.378;2024-01-11T04:05:32;-6.17;88.18
69393;SHT31;56582;44.624;20.378;2024-01-11T04:07:57;-5.94;87.14
69393;SHT31;56582;44.624;20.378;2024-01-11T04:10:23;-6.07;87.10
69393;SHT31;56582;44.624;20.378;2024-01-11T04:12:48;-6.13;87.99
69393;SHT31;56582;44.624;20.378;2024-01-11T04:15:14;-5.86;87.71
69393;SHT31;56582;44.624;20.378;2024-01-11T04:17:40;-6.20;88.00
69393;SHT31;56582;44.624;20.378;2024-01-11T04:20:06;-6.47;89.14
69393;SHT31;56582;44.624;20.378;2024-01-11T04:22:33;-6.43;88.84
69393;SHT31;56582;44.624;20.378;2024-01-11T04:24:58;-6.47;88.68
69393;SHT31;56582;44.624;20.378;2024-01-11T04:27:24;-6.37;89.59
69393;SHT31;56582;44.624;20.378;2024-01-11T04:29:49;-6.41;89.01
69393;SHT31;56582;44.624;20.378;2024-01-11T04:32:15;-6.33;89.42
69393;SHT31;56582;44.624;20.378;2024-01-11T04:34:40;-6.34;89.47
69393;SHT31;56582;44.624;20.378;2024-01-11T04:37:06;-6.34;89.03
69393;SHT31;56582;44.624;20.378;2024-01-11T04:39:32;-6.19;89.01
69393;SHT31;56582;44.624;20.378;2024-01-11T04:41:57;-6.07;88.82
69393;SHT31;56582;44.624;20.378;2024-01-11T04:44:23;-5.99;88.21
69393;SHT31;56582;44.624;20.378;2024-01-11T04:46:48;-6.09;87.56
69393;SHT31;56582;44.624;20.378;2024-01-11T04:49:14;-6.23;87.97
69393;SHT31;56582;44.624;20.378;2024-01-11T04:51:39;-6.44;88.71
69393;SHT31;56582;44.624;20.378;2024-01-11T04:54:05;-6.13;88.73
69393;SHT31;56582;44.624;20.378;2024-01-11T04:56:31;-6.29;89.08
69393;SHT31;56582;44.624;20.378;2024-01-11T04:58:56;-6.05;89.55
69393;SHT31;56582;44.624;20.378;2024-01-11T05:01:22;-6.15;89.32
69393;SHT31;56582;44.624;20.378;2024-01-11T05:03:48;-6.07;89.56
69393;SHT31;56582;44.624;20.378;2024-01-11T05:06:21;-5.58;87.59
69393;SHT31;56582;44.624;20.378;2024-01-11T05:08:48;-5.89;87.77
69393;SHT31;56582;44.624;20.378;2024-01-11T05:11:22;-5.94;87.89
69393;SHT31;56582;44.624;20.378;2024-01-11T05:13:49;-5.91;88.05
69393;SHT31;56582;44.624;20.378;2024-01-11T05:18:44;-5.89;87.93
69393;SHT31;56582;44.624;20.378;2024-01-11T05:21:10;-6.05;89.00
69393;SHT31;56582;44.624;20.378;2024-01-11T05:23:35;-5.99;89.04
69393;SHT31;56582;44.624;20.378;2024-01-11T05:26:01;-6.01;88.96
69393;SHT31;56582;44.624;20.378;2024-01-11T05:28:27;-5.82;89.71
69393;SHT31;56582;44.624;20.378;2024-01-11T05:30:53;-5.88;89.27
69393;SHT31;56582;44.624;20.378;2024-01-11T05:33:18;-6.12;89.46
69393;SHT31;56582;44.624;20.378;2024-01-11T05:35:43;-5.96;89.24
69393;SHT31;56582;44.624;20.378;2024-01-11T05:38:09;-5.94;89.29
69393;SHT31;56582;44.624;20.378;2024-01-11T05:40:34;-5.95;89.52
69393;SHT31;56582;44.624;20.378;2024-01-11T05:43:00;-5.91;89.47
69393;SHT31;56582;44.624;20.378;2024-01-11T05:45:25;-5.78;89.01
69393;SHT31;56582;44.624;20.378;2024-01-11T05:47:51;-5.71;88.95
69393;SHT31;56582;44.624;20.378;2024-01-11T05:50:16;-5.81;88.56
69393;SHT31;56582;44.624;20.378;2024-01-11T05:52:42;-6.10;89.45
69393;SHT31;56582;44.624;20.378;2024-01-11T05:55:07;-6.09;89.58
69393;SHT31;56582;44.624;20.378;2024-01-11T05:57:33;-5.98;89.93
69393;SHT31;56582;44.624;20.378;2024-01-11T05:59:58;-5.81;89.62
69393;SHT31;56582;44.624;20.378;2024-01-11T06:02:24;-5.98;89.64
69393;SHT31;56582;44.624;20.378;2024-01-11T06:04:49;-5.86;89.46
69393;SHT31;56582;44.624;20.378;2024-01-11T06:07:15;-5.89;89.45
69393;SHT31;56582;44.624;20.378;2024-01-11T06:09:41;-6.01;89.47
69393;SHT31;56582;44.624;20.378;2024-01-11T06:12:06;-5.96;89.35
69393;SHT31;56582;44.624;20.378;2024-01-11T06:14:32;-5.96;89.23
69393;SHT31;56582;44.624;20.378;2024-01-11T06:16:58;-5.78;89.23
69393;SHT31;56582;44.624;20.378;2024-01-11T06:19:23;-5.95;89.35
69393;SHT31;56582;44.624;20.378;2024-01-11T06:21:49;-5.99;89.80
69393;SHT31;56582;44.624;20.378;2024-01-11T06:24:14;-5.85;89.53
69393;SHT31;56582;44.624;20.378;2024-01-11T06:26:40;-5.77;89.12
69393;SHT31;56582;44.624;20.378;2024-01-11T06:29:05;-5.75;88.94
69393;SHT31;56582;44.624;20.378;2024-01-11T06:31:31;-5.75;89.54
69393;SHT31;56582;44.624;20.378;2024-01-11T06:33:57;-5.63;89.13
69393;SHT31;56582;44.624;20.378;2024-01-11T06:36:22;-5.61;89.09
69393;SHT31;56582;44.624;20.378;2024-01-11T06:38:48;-5.58;88.89
69393;SHT31;56582;44.624;20.378;2024-01-11T06:41:14;-5.64;89.01
69393;SHT31;56582;44.624;20.378;2024-01-11T06:43:39;-5.53;88.12
69393;SHT31;56582;44.624;20.378;2024-01-11T06:46:05;-5.47;88.20
69393;SHT31;56582;44.624;20.378;2024-01-11T06:48:31;-5.44;88.14
69393;SHT31;56582;44.624;20.378;2024-01-11T06:50:57;-5.70;88.23
69393;SHT31;56582;44.624;20.378;2024-01-11T06:53:22;-5.37;88.31
69393;SHT31;56582;44.624;20.378;2024-01-11T06:55:48;-5.31;87.64
69393;SHT31;56582;44.624;20.378;2024-01-11T06:58:16;-5.50;87.77
69393;SHT31;56582;44.624;20.378;2024-01-11T07:00:41;-5.70;88.24
69393;SHT31;56582;44.624;20.378;2024-01-11T07:03:09;-5.78;89.30
69393;SHT31;56582;44.624;20.378;2024-01-11T07:05:35;-5.64;89.04
69393;SHT31;56582;44.624;20.378;2024-01-11T07:08:01;-5.51;88.95
69393;SHT31;56582;44.624;20.378;2024-01-11T07:10:27;-5.74;89.54
69393;SHT31;56582;44.624;20.378;2024-01-11T07:12:52;-5.82;89.87
69393;SHT31;56582;44.624;20.378;2024-01-11T07:15:18;-5.68;89.72
69393;SHT31;56582;44.624;20.378;2024-01-11T07:17:43;-5.60;90.13
69393;SHT31;56582;44.624;20.378;2024-01-11T07:20:09;-5.75;90.09
69393;SHT31;56582;44.624;20.378;2024-01-11T07:22:35;-5.63;90.06
69393;SHT31;56582;44.624;20.378;2024-01-11T07:25:01;-5.51;90.11
69393;SHT31;56582;44.624;20.378;2024-01-11T07:27:26;-5.48;89.45
69393;SHT31;56582;44.624;20.378;2024-01-11T07:29:52;-5.40;89.40
69393;SHT31;56582;44.624;20.378;2024-01-11T07:32:17;-5.30;88.54
69393;SHT31;56582;44.624;20.378;2024-01-11T07:34:43;-5.16;88.15
69393;SHT31;56582;44.624;20.378;2024-01-11T07:37:09;-5.09;87.54
69393;SHT31;56582;44.624;20.378;2024-01-11T07:39:34;-4.85;86.59
69393;SHT31;56582;44.624;20.378;2024-01-11T07:42:01;-5.17;86.86
69393;SHT31;56582;44.624;20.378;2024-01-11T07:44:28;-5.13;88.11
69393;SHT31;56582;44.624;20.378;2024-01-11T07:46:53;-5.12;88.07
69393;SHT31;56582;44.624;20.378;2024-01-11T07:49:19;-4.97;88.20
69393;SHT31;56582;44.624;20.378;2024-01-11T07:51:45;-4.92;88.35
69393;SHT31;56582;44.624;20.378;2024-01-11T07:54:11;-4.82;88.19
69393;SHT31;56582;44.624;20.378;2024-01-11T07:56:36;-4.74;88.23
69393;SHT31;56582;44.624;20.378;2024-01-11T07:59:02;-4.82;88.62
69393;SHT31;56582;44.624;20.378;2024-01-11T08:01:27;-4.69;88.39
69393;SHT31;56582;44.624;20.378;2024-01-11T08:03:53;-4.65;87.71
69393;SHT31;56582;44.624;20.378;2024-01-11T08:06:18;-4.64;88.06
69393;SHT31;56582;44.624;20.378;2024-01-11T08:08:44;-4.64;87.90
69393;SHT31;56582;44.624;20.378;2024-01-11T08:11:10;-4.74;88.11
69393;SHT31;56582;44.624;20.378;2024-01-11T08:13:38;-4.75;88.36
69393;SHT31;56582;44.624;20.378;2024-01-11T08:16:04;-4.61;88.15
69393;SHT31;56582;44.624;20.378;2024-01-11T08:18:34;-4.53;87.17
69393;SHT31;56582;44.624;20.378;2024-01-11T08:21:00;-4.57;87.37
69393;SHT31;56582;44.624;20.378;2024-01-11T08:23:25;-4.53;88.23
69393;SHT31;56582;44.624;20.378;2024-01-11T08:25:51;-4.46;87.87
69393;SHT31;56582;44.624;20.378;2024-01-11T08:28:20;-4.41;88.13
69393;SHT31;56582;44.624;20.378;2024-01-11T08:30:45;-4.14;87.46
69393;SHT31;56582;44.624;20.378;2024-01-11T08:33:11;-4.03;86.77
69393;SHT31;56582;44.624;20.378;2024-01-11T08:35:39;-3.83;85.47
69393;SHT31;56582;44.624;20.378;2024-01-11T08:38:06;-3.52;85.11
69393;SHT31;56582;44.624;20.378;2024-01-11T08:40:31;-3.90;85.01
69393;SHT31;56582;44.624;20.378;2024-01-11T08:42:57;-3.93;85.68
69393;SHT31;56582;44.624;20.378;2024-01-11T08:45:23;-3.83;85.72
69393;SHT31;56582;44.624;20.378;2024-01-11T08:47:49;-3.83;86.13
69393;SHT31;56582;44.624;20.378;2024-01-11T08:50:15;-3.38;84.97
69393;SHT31;56582;44.624;20.378;2024-01-11T08:52:41;-3.36;84.87
69393;SHT31;56582;44.624;20.378;2024-01-11T08:55:08;-3.52;85.55
69393;SHT31;56582;44.624;20.378;2024-01-11T08:57:33;-3.31;84.98
69393;SHT31;56582;44.624;20.378;2024-01-11T09:00:02;-3.33;84.66
69393;SHT31;56582;44.624;20.378;2024-01-11T09:02:27;-3.48;85.24
69393;SHT31;56582;44.624;20.378;2024-01-11T09:04:53;-3.46;85.28
69393;SHT31;56582;44.624;20.378;2024-01-11T09:07:18;-3.50;85.65
69393;SHT31;56582;44.624;20.378;2024-01-11T09:09:44;-3.43;85.16
69393;SHT31;56582;44.624;20.378;2024-01-11T09:12:10;-3.43;85.68
69393;SHT31;56582;44.624;20.378;2024-01-11T09:14:35;-3.40;85.19
69393;SHT31;56582;44.624;20.378;2024-01-11T09:17:04;-3.48;85.52
69393;SHT31;56582;44.624;20.378;2024-01-11T09:19:32;-3.06;83.28
69393;SHT31;56582;44.624;20.378;2024-01-11T09:21:59;-3.24;84.50
69393;SHT31;56582;44.624;20.378;2024-01-11T09:24:24;-3.18;84.74
69393;SHT31;56582;44.624;20.378;2024-01-11T09:26:50;-3.20;83.94
69393;SHT31;56582;44.624;20.378;2024-01-11T09:29:16;-2.99;83.91
69393;SHT31;56582;44.624;20.378;2024-01-11T09:31:42;-2.86;83.34
69393;SHT31;56582;44.624;20.378;2024-01-11T09:34:07;-2.89;83.59
69393;SHT31;56582;44.624;20.378;2024-01-11T09:36:33;-2.92;83.53
69393;SHT31;56582;44.624;20.378;2024-01-11T09:38:59;-2.73;82.51
69393;SHT31;56582;44.624;20.378;2024-01-11T09:41:25;-2.88;83.48
69393;SHT31;56582;44.624;20.378;2024-01-11T09:43:54;-2.92;84.34
69393;SHT31;56582;44.624;20.378;2024-01-11T09:46:20;-3.33;83.58
69393;SHT31;56582;44.624;20.378;2024-01-11T09:48:47;-3.16;83.34
69393;SHT31;56582;44.624;20.378;2024-01-11T09:51:13;-3.21;83.02
69393;SHT31;56582;44.624;20.378;2024-01-11T09:53:39;-3.23;84.19
69393;SHT31;56582;44.624;20.378;2024-01-11T09:56:09;-3.07;84.48
69393;SHT31;56582;44.624;20.378;2024-01-11T09:58:35;-3.26;83.21
69393;SHT31;56582;44.624;20.378;2024-01-11T10:01:09;-3.24;82.62
69393;SHT31;56582;44.624;20.378;2024-01-11T10:03:41;-4.00;85.15
69393;SHT31;56582;44.624;20.378;2024-01-11T10:06:09;-3.64;85.46
69393;SHT31;56582;44.624;20.378;2024-01-11T10:08:35;-3.24;85.92
69393;SHT31;56582;44.624;20.378;2024-01-11T10:11:02;-3.30;84.84
69393;SHT31;56582;44.624;20.378;2024-01-11T10:13:31;-3.37;84.14
69393;SHT31;56582;44.624;20.378;2024-01-11T10:16:12;-3.18;83.68
69393;SHT31;56582;44.624;20.378;2024-01-11T10:18:43;-3.24;84.13
69393;SHT31;56582;44.624;20.378;2024-01-11T10:21:09;-3.24;84.37
69393;SHT31;56582;44.624;20.378;2024-01-11T10:23:35;-2.97;84.54
69393;SHT31;56582;44.624;20.378;2024-01-11T10:26:01;-2.86;84.73
69393;SHT31;56582;44.624;20.378;2024-01-11T10:28:27;-2.85;84.27
69393;SHT31;56582;44.624;20.378;2024-01-11T10:30:53;-2.78;83.72
69393;SHT31;56582;44.624;20.378;2024-01-11T10:33:20;-2.78;83.86
69393;SHT31;56582;44.624;20.378;2024-01-11T10:35:49;-2.47;82.61
69393;SHT31;56582;44.624;20.378;2024-01-11T10:38:15;-2.68;83.06
69393;SHT31;56582;44.624;20.378;2024-01-11T10:40:42;-3.01;83.73
69393;SHT31;56582;44.624;20.378;2024-01-11T10:43:11;-2.65;82.70
69393;SHT31;56582;44.624;20.378;2024-01-11T10:45:38;-2.47;83.46
69393;SHT31;56582;44.624;20.378;2024-01-11T10:48:14;-2.42;82.93
69393;SHT31;56582;44.624;20.378;2024-01-11T10:50:44;-2.27;82.58
69393;SHT31;56582;44.624;20.378;2024-01-11T10:55:55;-2.66;82.35
69393;SHT31;56582;44.624;20.378;2024-01-11T10:58:22;-2.49;82.57
69393;SHT31;56582;44.624;20.378;2024-01-11T11:00:50;-2.42;82.98
69393;SHT31;56582;44.624;20.378;2024-01-11T11:03:18;-2.28;83.14
69393;SHT31;56582;44.624;20.378;2024-01-11T11:05:45;-2.38;83.20
69393;SHT31;56582;44.624;20.378;2024-01-11T11:08:12;-2.42;83.27
69393;SHT31;56582;44.624;20.378;2024-01-11T11:10:39;-2.88;83.10
69393;SHT31;56582;44.624;20.378;2024-01-11T11:13:06;-2.64;83.87
69393;SHT31;56582;44.624;20.378;2024-01-11T11:15:35;-2.38;83.39
69393;SHT31;56582;44.624;20.378;2024-01-11T11:18:02;-2.54;82.91
69393;SHT31;56582;44.624;20.378;2024-01-11T11:20:30;-2.54;83.19
69393;SHT31;56582;44.624;20.378;2024-01-11T11:23:09;-2.23;82.34
69393;SHT31;56582;44.624;20.378;2024-01-11T11:25:42;-2.20;83.44
69393;SHT31;56582;44.624;20.378;2024-01-11T11:28:07;-2.18;82.92
69393;SHT31;56582;44.624;20.378;2024-01-11T11:30:37;-2.37;84.00
69393;SHT31;56582;44.624;20.378;2024-01-11T11:35:40;-2.06;83.27
69393;SHT31;56582;44.624;20.378;2024-01-11T11:38:06;-1.87;81.62
69393;SHT31;56582;44.624;20.378;2024-01-11T11:40:33;-2.00;82.07
69393;SHT31;56582;44.624;20.378;2024-01-11T11:43:02;-1.93;82.60
69393;SHT31;56582;44.624;20.378;2024-01-11T11:45:30;-2.07;83.44
69393;SHT31;56582;44.624;20.378;2024-01-11T11:47:57;-2.21;82.82
69393;SHT31;56582;44.624;20.378;2024-01-11T11:50:23;-2.18;83.51
69393;SHT31;56582;44.624;20.378;2024-01-11T11:52:55;-1.96;83.55
69393;SHT31;56582;44.624;20.378;2024-01-11T11:55:23;-1.90;83.27
69393;SHT31;56582;44.624;20.378;2024-01-11T11:57:50;-2.07;82.98
69393;SHT31;56582;44.624;20.378;2024-01-11T12:00:16;-2.27;82.73
69393;SHT31;56582;44.624;20.378;2024-01-11T12:02:41;-2.03;83.21
69393;SHT31;56582;44.624;20.378;2024-01-11T12:05:07;-1.93;83.08
69393;SHT31;56582;44.624;20.378;2024-01-11T12:07:33;-1.79;82.18
69393;SHT31;56582;44.624;20.378;2024-01-11T12:09:59;-1.94;83.31
69393;SHT31;56582;44.624;20.378;2024-01-11T12:12:25;-1.58;80.97
69393;SHT31;56582;44.624;20.378;2024-01-11T12:14:51;-1.76;81.37
69393;SHT31;56582;44.624;20.378;2024-01-11T12:17:18;-1.87;82.35
69393;SHT31;56582;44.624;20.378;2024-01-11T12:19:43;-1.70;81.94
69393;SHT31;56582;44.624;20.378;2024-01-11T12:22:09;-2.11;82.29
69393;SHT31;56582;44.624;20.378;2024-01-11T12:24:35;-1.87;82.57
69393;SHT31;56582;44.624;20.378;2024-01-11T12:27:01;-1.96;83.07
69393;SHT31;56582;44.624;20.378;2024-01-11T12:29:29;-1.79;82.56
69393;SHT31;56582;44.624;20.378;2024-01-11T12:31:58;-2.20;82.34
69393;SHT31;56582;44.624;20.378;2024-01-11T12:34:25;-2.38;82.81
69393;SHT31;56582;44.624;20.378;2024-01-11T12:36:52;-2.33;83.59
69393;SHT31;56582;44.624;20.378;2024-01-11T12:39:19;-2.52;82.95
69393;SHT31;56582;44.624;20.378;2024-01-11T12:41:50;-2.41;83.80
69393;SHT31;56582;44.624;20.378;2024-01-11T12:44:17;-2.55;83.92
69393;SHT31;56582;44.624;20.378;2024-01-11T12:46:44;-2.38;84.53
69393;SHT31;56582;44.624;20.378;2024-01-11T12:49:10;-2.14;83.96
69393;SHT31;56582;44.624;20.378;2024-01-11T12:51:36;-2.01;83.77
69393;SHT31;56582;44.624;20.378;2024-01-11T12:54:02;-1.94;83.32
69393;SHT31;56582;44.624;20.378;2024-01-11T12:56:29;-1.83;82.85
69393;SHT31;56582;44.624;20.378;2024-01-11T12:59:10;-1.94;82.57
69393;SHT31;56582;44.624;20.378;2024-01-11T13:01:38;-1.90;82.73
69393;SHT31;56582;44.624;20.378;2024-01-11T13:04:04;-1.70;81.29
69393;SHT31;56582;44.624;20.378;2024-01-11T13:06:31;-1.68;82.12
69393;SHT31;56582;44.624;20.378;2024-01-11T13:08:57;-2.06;82.02
69393;SHT31;56582;44.624;20.378;2024-01-11T13:11:23;-2.01;82.79
69393;SHT31;56582;44.624;20.378;2024-01-11T13:13:53;-1.70;82.23
69393;SHT31;56582;44.624;20.378;2024-01-11T13:16:19;-1.78;83.03
69393;SHT31;56582;44.624;20.378;2024-01-11T13:18:45;-1.82;82.64
69393;SHT31;56582;44.624;20.378;2024-01-11T13:21:11;-1.85;83.86
69393;SHT31;56582;44.624;20.378;2024-01-11T13:23:40;-1.99;83.70
69393;SHT31;56582;44.624;20.378;2024-01-11T13:26:07;-1.76;83.12
69393;SHT31;56582;44.624;20.378;2024-01-11T13:28:35;-1.80;82.73
69393;SHT31;56582;44.624;20.378;2024-01-11T13:31:01;-1.42;81.99
69393;SHT31;56582;44.624;20.378;2024-01-11T13:33:27;-1.51;81.20
69393;SHT31;56582;44.624;20.378;2024-01-11T13:35:53;-1.97;82.38
69393;SHT31;56582;44.624;20.378;2024-01-11T13:38:19;-2.03;83.28
69393;SHT31;56582;44.624;20.378;2024-01-11T13:40:45;-1.99;83.78
69393;SHT31;56582;44.624;20.378;2024-01-11T13:43:10;-1.87;84.12
69393;SHT31;56582;44.624;20.378;2024-01-11T13:45:36;-1.69;83.57
69393;SHT31;56582;44.624;20.378;2024-01-11T13:48:05;-1.66;83.19
69393;SHT31;56582;44.624;20.378;2024-01-11T13:50:31;-1.72;82.90
69393;SHT31;56582;44.624;20.378;2024-01-11T13:53:00;-1.80;83.34
69393;SHT31;56582;44.624;20.378;2024-01-11T13:55:26;-1.72;83.27
69393;SHT31;56582;44.624;20.378;2024-01-11T13:57:52;-1.89;83.17
69393;SHT31;56582;44.624;20.378;2024-01-11T14:00:19;-1.89;83.32
69393;SHT31;56582;44.624;20.378;2024-01-11T14:02:45;-1.79;83.73
69393;SHT31;56582;44.624;20.378;2024-01-11T14:05:12;-1.70;83.76
69393;SHT31;56582;44.624;20.378;2024-01-11T14:07:39;-1.65;82.46
69393;SHT31;56582;44.624;20.378;2024-01-11T14:10:06;-1.54;81.68
69393;SHT31;56582;44.624;20.378;2024-01-11T14:12:36;-1.79;82.36
69393;SHT31;56582;44.624;20.378;2024-01-11T14:15:06;-1.85;83.13
69393;SHT31;56582;44.624;20.378;2024-01-11T14:17:33;-1.86;83.16
69393;SHT31;56582;44.624;20.378;2024-01-11T14:19:59;-1.85;82.84
69393;SHT31;56582;44.624;20.378;2024-01-11T14:22:26;-2.15;83.10
69393;SHT31;56582;44.624;20.378;2024-01-11T14:24:51;-2.14;83.29
69393;SHT31;56582;44.624;20.378;2024-01-11T14:27:20;-2.14;84.02
69393;SHT31;56582;44.624;20.378;2024-01-11T14:29:46;-2.33;83.92
69393;SHT31;56582;44.624;20.378;2024-01-11T14:32:12;-2.51;84.44
69393;SHT31;56582;44.624;20.378;2024-01-11T14:34:42;-2.68;84.75
69393;SHT31;56582;44.624;20.378;2024-01-11T14:37:09;-3.20;85.62
69393;SHT31;56582;44.624;20.378;2024-01-11T14:39:35;-3.59;86.76
69393;SHT31;56582;44.624;20.378;2024-01-11T14:42:00;-3.18;86.83
69393;SHT31;56582;44.624;20.378;2024-01-11T14:44:26;-3.67;86.81
69393;SHT31;56582;44.624;20.378;2024-01-11T14:46:51;-3.33;87.46
69393;SHT31;56582;44.624;20.378;2024-01-11T14:49:17;-3.85;88.66
69393;SHT31;56582;44.624;20.378;2024-01-11T14:51:42;-3.83;88.94
69393;SHT31;56582;44.624;20.378;2024-01-11T14:54:08;-3.64;88.71
69393;SHT31;56582;44.624;20.378;2024-01-11T14:56:33;-3.68;88.46
69393;SHT31;56582;44.624;20.378;2024-01-11T14:59:01;-3.67;88.62
69393;SHT31;56582;44.624;20.378;2024-01-11T15:01:27;-3.24;87.40
69393;SHT31;56582;44.624;20.378;2024-01-11T15:03:52;-3.27;86.79
69393;SHT31;56582;44.624;20.378;2024-01-11T15:06:18;-3.38;87.71
69393;SHT31;56582;44.624;20.378;2024-01-11T15:08:44;-3.41;87.73
69393;SHT31;56582;44.624;20.378;2024-01-11T15:11:09;-3.23;87.81
69393;SHT31;56582;44.624;20.378;2024-01-11T15:13:35;-2.99;86.72
69393;SHT31;56582;44.624;20.378;2024-01-11T15:16:01;-3.00;86.48
69393;SHT31;56582;44.624;20.378;2024-01-11T15:18:28;-2.96;86.64